createdAt,value
2018-09-28T00:00:03.031Z,997.75
2018-09-28T00:01:03.124Z,997.76
2018-09-28T00:02:03.209Z,997.73
2018-09-28T00:03:12.196Z,997.75
2018-09-28T00:04:03.416Z,997.72
2018-09-28T00:05:03.505Z,997.68
2018-09-28T00:06:03.596Z,997.69
2018-09-28T00:07:03.686Z,997.73
2018-09-28T00:08:03.777Z,997.73
2018-09-28T00:09:03.868Z,997.72
2018-09-28T00:10:03.968Z,997.76
2018-09-28T00:11:04.060Z,997.75
2018-09-28T00:12:04.139Z,997.77
2018-09-28T00:13:04.233Z,997.80
2018-09-28T00:14:04.324Z,997.83
2018-09-28T00:15:04.415Z,997.80
2018-09-28T00:16:04.508Z,997.85
2018-09-28T00:17:04.601Z,997.82
2018-09-28T00:18:04.693Z,997.80
2018-09-28T00:19:04.780Z,997.76
2018-09-28T00:20:04.869Z,997.77
2018-09-28T00:21:04.966Z,997.80
2018-09-28T00:22:05.048Z,997.77
2018-09-28T00:23:05.135Z,997.76
2018-09-28T00:24:05.223Z,997.74
2018-09-28T00:25:05.314Z,997.72
2018-09-28T00:26:05.437Z,997.75
2018-09-28T00:27:05.499Z,997.78
2018-09-28T00:28:05.574Z,997.78
2018-09-28T00:29:05.647Z,997.76
2018-09-28T00:30:05.741Z,997.74
2018-09-28T00:31:05.821Z,997.79
2018-09-28T00:32:05.897Z,997.75
2018-09-28T00:33:05.990Z,997.75
2018-09-28T00:34:06.059Z,997.74
2018-09-28T00:35:06.146Z,997.72
2018-09-28T00:36:06.287Z,997.73
2018-09-28T00:37:06.315Z,997.71
2018-09-28T00:38:06.401Z,997.72
2018-09-28T00:39:06.487Z,997.73
2018-09-28T00:40:06.576Z,997.72
2018-09-28T00:41:06.666Z,997.67
2018-09-28T00:42:06.762Z,997.67
2018-09-28T00:43:06.831Z,997.75
2018-09-28T00:44:06.924Z,997.71
2018-09-28T00:45:07.026Z,997.68
2018-09-28T00:46:07.100Z,997.67
2018-09-28T00:47:07.179Z,997.61
2018-09-28T00:48:07.255Z,997.63
2018-09-28T00:49:07.354Z,997.62
2018-09-28T00:50:07.433Z,997.61
2018-09-28T00:51:07.523Z,997.64
2018-09-28T00:52:07.608Z,997.62
2018-09-28T00:53:07.703Z,997.63
2018-09-28T00:54:07.781Z,997.61
2018-09-28T00:55:07.871Z,997.63
2018-09-28T00:56:07.948Z,997.59
2018-09-28T00:57:08.064Z,997.64
2018-09-28T00:58:08.152Z,997.62
2018-09-28T00:59:08.246Z,997.57
2018-09-28T01:00:08.324Z,997.60
2018-09-28T01:01:08.420Z,997.56
2018-09-28T01:02:08.506Z,997.59
2018-09-28T01:03:08.590Z,997.53
2018-09-28T01:05:53.321Z,997.55
2018-09-28T01:06:53.048Z,997.56
2018-09-28T01:07:53.127Z,997.56
2018-09-28T01:08:53.219Z,997.54
2018-09-28T01:09:53.306Z,997.53
2018-09-28T01:10:53.393Z,997.50
2018-09-28T01:11:53.486Z,997.49
2018-09-28T01:12:53.582Z,997.51
2018-09-28T01:13:53.677Z,997.50
2018-09-28T01:14:53.767Z,997.56
2018-09-28T01:15:53.861Z,997.54
2018-09-28T01:16:53.945Z,997.56
2018-09-28T01:17:54.041Z,997.51
2018-09-28T01:18:54.130Z,997.52
2018-09-28T01:19:54.221Z,997.50
2018-09-28T01:20:54.308Z,997.50
2018-09-28T01:21:54.397Z,997.56
2018-09-28T01:22:54.491Z,997.53
2018-09-28T01:23:54.581Z,997.52
2018-09-28T01:24:54.672Z,997.51
2018-09-28T01:25:54.765Z,997.48
2018-09-28T01:26:54.855Z,997.50
2018-09-28T01:27:54.942Z,997.49
2018-09-28T01:28:55.036Z,997.44
2018-09-28T01:29:55.126Z,997.45
2018-09-28T01:30:55.218Z,997.44
2018-09-28T01:31:55.306Z,997.44
2018-09-28T01:32:55.392Z,997.44
2018-09-28T01:33:55.477Z,997.41
2018-09-28T01:34:55.567Z,997.41
2018-09-28T01:35:55.655Z,997.39
2018-09-28T01:36:55.745Z,997.37
2018-09-28T01:37:55.830Z,997.36
2018-09-28T01:38:55.915Z,997.34
2018-09-28T01:39:55.999Z,997.31
2018-09-28T01:40:56.083Z,997.32
2018-09-28T01:41:56.177Z,997.32
2018-09-28T01:42:56.261Z,997.34
2018-09-28T01:43:56.349Z,997.34
2018-09-28T01:44:56.433Z,997.36
2018-09-28T01:45:56.526Z,997.33
2018-09-28T01:46:56.613Z,997.34
2018-09-28T01:47:56.698Z,997.35
2018-09-28T01:48:56.787Z,997.35
2018-09-28T01:49:56.870Z,997.32
2018-09-28T01:50:56.953Z,997.30
2018-09-28T01:51:57.046Z,997.32
2018-09-28T01:52:57.131Z,997.28
2018-09-28T01:53:57.217Z,997.27
2018-09-28T01:54:57.301Z,997.32
2018-09-28T01:55:57.398Z,997.31
2018-09-28T01:56:57.482Z,997.33
2018-09-28T01:57:57.546Z,997.32
2018-09-28T01:58:57.657Z,997.33
2018-09-28T01:59:57.715Z,997.40
2018-09-28T02:00:57.818Z,997.38
2018-09-28T02:01:57.892Z,997.41
2018-09-28T02:02:57.970Z,997.41
2018-09-28T02:03:58.052Z,997.35
2018-09-28T02:04:58.137Z,997.40
2018-09-28T02:05:58.226Z,997.39
2018-09-28T02:06:58.311Z,997.40
2018-09-28T02:07:58.399Z,997.35
2018-09-28T02:08:58.502Z,997.36
2018-09-28T02:09:58.560Z,997.39
2018-09-28T02:10:58.656Z,997.39
2018-09-28T02:11:58.743Z,997.46
2018-09-28T02:12:58.824Z,997.42
2018-09-28T02:13:58.916Z,997.38
2018-09-28T02:14:59.003Z,997.43
2018-09-28T02:15:59.113Z,997.40
2018-09-28T02:16:59.188Z,997.43
2018-09-28T02:17:59.276Z,997.36
2018-09-28T02:18:59.361Z,997.38
2018-09-28T02:19:59.446Z,997.39
2018-09-28T02:20:59.540Z,997.37
2018-09-28T02:21:59.608Z,997.37
2018-09-28T02:22:59.681Z,997.40
2018-09-28T02:23:59.786Z,997.39
2018-09-28T02:24:59.864Z,997.38
2018-09-28T02:25:59.940Z,997.39
2018-09-28T02:28:44.071Z,997.38
2018-09-28T02:29:44.160Z,997.44
2018-09-28T02:30:44.250Z,997.42
2018-09-28T02:31:44.338Z,997.42
2018-09-28T02:32:44.425Z,997.41
2018-09-28T02:33:44.516Z,997.43
2018-09-28T02:34:44.607Z,997.39
2018-09-28T02:35:44.700Z,997.43
2018-09-28T02:36:44.780Z,997.39
2018-09-28T02:37:44.872Z,997.42
2018-09-28T02:38:44.964Z,997.42
2018-09-28T02:39:45.056Z,997.44
2018-09-28T02:40:45.141Z,997.42
2018-09-28T02:41:45.230Z,997.42
2018-09-28T02:42:45.320Z,997.43
2018-09-28T02:43:45.408Z,997.50
2018-09-28T02:44:45.494Z,997.44
2018-09-28T02:45:45.591Z,997.47
2018-09-28T02:46:45.684Z,997.47
2018-09-28T02:47:45.774Z,997.50
2018-09-28T02:48:45.861Z,997.45
2018-09-28T02:49:45.951Z,997.52
2018-09-28T02:50:46.060Z,997.51
2018-09-28T02:51:46.148Z,997.52
2018-09-28T02:52:46.244Z,997.50
2018-09-28T02:53:46.328Z,997.50
2018-09-28T02:54:46.419Z,997.50
2018-09-28T02:55:46.511Z,997.49
2018-09-28T02:56:46.686Z,997.46
2018-09-28T02:57:46.689Z,997.47
2018-09-28T02:58:46.776Z,997.43
2018-09-28T02:59:46.866Z,997.43
2018-09-28T03:00:46.955Z,997.42
2018-09-28T03:01:47.046Z,997.40
2018-09-28T03:02:47.136Z,997.34
2018-09-28T03:03:47.219Z,997.39
2018-09-28T03:04:47.315Z,997.36
2018-09-28T03:05:47.403Z,997.36
2018-09-28T03:06:47.495Z,997.37
2018-09-28T03:07:47.583Z,997.41
2018-09-28T03:08:47.677Z,997.35
2018-09-28T03:09:47.761Z,997.37
2018-09-28T03:10:47.850Z,997.36
2018-09-28T03:11:47.945Z,997.31
2018-09-28T03:12:48.033Z,997.35
2018-09-28T03:13:48.121Z,997.36
2018-09-28T03:14:48.238Z,997.36
2018-09-28T03:15:48.324Z,997.36
2018-09-28T03:16:48.415Z,997.38
2018-09-28T03:17:48.503Z,997.39
2018-09-28T03:18:48.598Z,997.37
2018-09-28T03:19:48.688Z,997.37
2018-09-28T03:20:48.774Z,997.35
2018-09-28T03:21:48.861Z,997.38
2018-09-28T03:22:48.951Z,997.39
2018-09-28T03:23:49.038Z,997.37
2018-09-28T03:24:49.122Z,997.36
2018-09-28T03:25:49.244Z,997.39
2018-09-28T03:26:49.309Z,997.36
2018-09-28T03:27:49.392Z,997.34
2018-09-28T03:28:49.475Z,997.38
2018-09-28T03:29:49.561Z,997.37
2018-09-28T03:30:49.656Z,997.39
2018-09-28T03:31:49.745Z,997.35
2018-09-28T03:32:49.882Z,997.36
2018-09-28T03:33:49.937Z,997.37
2018-09-28T03:34:50.018Z,997.37
2018-09-28T03:35:50.107Z,997.36
2018-09-28T03:36:50.200Z,997.39
2018-09-28T03:37:50.289Z,997.34
2018-09-28T03:38:50.368Z,997.40
2018-09-28T03:39:50.454Z,997.39
2018-09-28T03:40:50.551Z,997.39
2018-09-28T03:41:50.644Z,997.36
2018-09-28T03:42:50.714Z,997.39
2018-09-28T03:43:50.822Z,997.35
2018-09-28T03:44:50.887Z,997.40
2018-09-28T03:45:50.986Z,997.40
2018-09-28T03:46:51.076Z,997.39
2018-09-28T03:47:51.157Z,997.38
2018-09-28T03:48:51.239Z,997.42
2018-09-28T03:49:51.354Z,997.40
2018-09-28T03:50:51.439Z,997.42
2018-09-28T03:51:51.528Z,997.47
2018-09-28T03:52:51.623Z,997.48
2018-09-28T03:53:51.718Z,997.50
2018-09-28T03:54:51.801Z,997.50
2018-09-28T03:55:51.890Z,997.46
2018-09-28T03:56:51.977Z,997.45
2018-09-28T03:57:52.068Z,997.48
2018-09-28T03:58:52.145Z,997.49
2018-09-28T03:59:52.233Z,997.47
2018-09-28T04:00:52.319Z,997.52
2018-09-28T04:01:52.410Z,997.59
2018-09-28T04:02:52.495Z,997.58
2018-09-28T04:03:52.586Z,997.57
2018-09-28T04:04:52.667Z,997.62
2018-09-28T04:05:52.757Z,997.63
2018-09-28T04:06:52.842Z,997.66
2018-09-28T04:07:52.918Z,997.68
2018-09-28T04:08:53.005Z,997.65
2018-09-28T04:09:53.093Z,997.67
2018-09-28T04:10:53.180Z,997.70
2018-09-28T04:11:53.263Z,997.68
2018-09-28T04:12:53.355Z,997.68
2018-09-28T04:13:53.445Z,997.69
2018-09-28T04:14:53.531Z,997.70
2018-09-28T04:15:53.625Z,997.74
2018-09-28T04:16:53.706Z,997.69
2018-09-28T04:17:53.795Z,997.74
2018-09-28T04:18:53.882Z,997.75
2018-09-28T04:19:53.969Z,997.70
2018-09-28T04:20:54.062Z,997.72
2018-09-28T04:21:54.166Z,997.71
2018-09-28T04:22:54.238Z,997.68
2018-09-28T04:23:54.327Z,997.67
2018-09-28T04:24:54.417Z,997.68
2018-09-28T04:25:54.506Z,997.77
2018-09-28T04:26:54.591Z,997.74
2018-09-28T04:27:54.684Z,997.75
2018-09-28T04:28:54.774Z,997.78
2018-09-28T04:29:54.864Z,997.77
2018-09-28T04:30:54.955Z,997.78
2018-09-28T04:31:55.050Z,997.85
2018-09-28T04:32:55.137Z,997.82
2018-09-28T04:33:55.222Z,997.82
2018-09-28T04:34:55.315Z,997.83
2018-09-28T04:35:55.401Z,997.83
2018-09-28T04:36:55.490Z,997.85
2018-09-28T04:37:55.570Z,997.79
2018-09-28T04:38:55.665Z,997.78
2018-09-28T04:39:55.755Z,997.79
2018-09-28T04:40:55.847Z,997.80
2018-09-28T04:41:55.929Z,997.79
2018-09-28T04:42:56.024Z,997.77
2018-09-28T04:43:56.110Z,997.78
2018-09-28T04:44:56.199Z,997.77
2018-09-28T04:45:56.294Z,997.76
2018-09-28T04:46:56.382Z,997.77
2018-09-28T04:47:56.474Z,997.78
2018-09-28T04:48:56.576Z,997.79
2018-09-28T04:49:56.664Z,997.79
2018-09-28T04:50:56.760Z,997.80
2018-09-28T04:51:56.850Z,997.80
2018-09-28T04:52:56.939Z,997.80
2018-09-28T04:53:57.026Z,997.78
2018-09-28T04:54:57.115Z,997.86
2018-09-28T04:55:57.205Z,997.85
2018-09-28T04:56:57.295Z,997.84
2018-09-28T04:57:57.380Z,997.90
2018-09-28T04:58:57.471Z,997.87
2018-09-28T04:59:57.567Z,997.86
2018-09-28T05:00:57.657Z,997.87
2018-09-28T05:01:57.744Z,997.86
2018-09-28T05:02:57.838Z,997.85
2018-09-28T05:03:57.926Z,997.86
2018-09-28T05:04:58.016Z,997.86
2018-09-28T05:05:58.107Z,997.90
2018-09-28T05:06:58.197Z,997.90
2018-09-28T05:07:58.288Z,997.88
2018-09-28T05:08:58.377Z,997.86
2018-09-28T05:09:58.462Z,997.87
2018-09-28T05:10:58.557Z,997.93
2018-09-28T05:11:58.648Z,998.00
2018-09-28T05:12:58.806Z,998.02
2018-09-28T05:13:58.836Z,997.98
2018-09-28T05:14:58.929Z,997.95
2018-09-28T05:15:59.015Z,997.95
2018-09-28T05:16:59.105Z,997.97
2018-09-28T05:17:59.195Z,998.02
2018-09-28T05:18:59.288Z,998.03
2018-09-28T05:19:59.375Z,997.97
2018-09-28T05:20:59.459Z,997.95
2018-09-28T05:21:59.546Z,997.94
2018-09-28T05:22:59.635Z,997.96
2018-09-28T05:23:59.729Z,998.02
2018-09-28T05:24:59.819Z,998.03
2018-09-28T05:25:59.911Z,997.95
2018-09-28T05:27:00.011Z,997.97
2018-09-28T05:28:00.096Z,998.01
2018-09-28T05:29:00.188Z,997.98
2018-09-28T05:30:00.277Z,998.00
2018-09-28T05:31:00.407Z,997.97
2018-09-28T05:32:00.489Z,998.04
2018-09-28T05:33:00.613Z,998.06
2018-09-28T05:34:00.642Z,998.03
2018-09-28T05:35:00.731Z,998.06
2018-09-28T05:36:00.818Z,998.03
2018-09-28T05:37:00.909Z,998.03
2018-09-28T05:38:01.000Z,998.05
2018-09-28T05:39:01.094Z,998.08
2018-09-28T05:40:01.181Z,998.01
2018-09-28T05:41:01.271Z,998.02
2018-09-28T05:42:01.366Z,998.05
2018-09-28T05:43:01.455Z,998.05
2018-09-28T05:44:01.549Z,998.09
2018-09-28T05:45:01.642Z,998.11
2018-09-28T05:46:01.726Z,998.08
2018-09-28T05:47:01.808Z,998.09
2018-09-28T05:48:01.901Z,998.12
2018-09-28T05:49:01.993Z,998.06
2018-09-28T05:50:02.087Z,998.08
2018-09-28T05:51:02.176Z,998.12
2018-09-28T05:52:02.288Z,998.06
2018-09-28T05:53:02.374Z,998.10
2018-09-28T05:54:02.460Z,998.03
2018-09-28T05:55:02.557Z,998.04
2018-09-28T05:56:02.645Z,998.06
2018-09-28T05:57:02.736Z,998.06
2018-09-28T05:58:02.829Z,998.06
2018-09-28T05:59:02.920Z,998.10
2018-09-28T06:00:03.012Z,998.09
2018-09-28T06:01:03.103Z,998.11
2018-09-28T06:02:03.191Z,998.14
2018-09-28T06:03:10.438Z,998.13
2018-09-28T06:04:03.406Z,998.18
2018-09-28T06:05:03.505Z,998.15
2018-09-28T06:06:03.594Z,998.15
2018-09-28T06:07:03.685Z,998.15
2018-09-28T06:08:03.775Z,998.21
2018-09-28T06:09:03.865Z,998.27
2018-09-28T06:10:03.966Z,998.27
2018-09-28T06:11:04.053Z,998.30
2018-09-28T06:12:04.142Z,998.30
2018-09-28T06:13:04.229Z,998.32
2018-09-28T06:14:04.321Z,998.39
2018-09-28T06:15:04.408Z,998.37
2018-09-28T06:16:04.496Z,998.38
2018-09-28T06:17:04.589Z,998.37
2018-09-28T06:18:04.763Z,998.41
2018-09-28T06:19:04.771Z,998.40
2018-09-28T06:20:04.859Z,998.43
2018-09-28T06:21:04.957Z,998.47
2018-09-28T06:22:05.040Z,998.49
2018-09-28T06:23:05.131Z,998.49
2018-09-28T06:24:05.238Z,998.43
2018-09-28T06:25:05.309Z,998.46
2018-09-28T06:26:05.404Z,998.48
2018-09-28T06:27:05.490Z,998.52
2018-09-28T06:28:05.579Z,998.49
2018-09-28T06:29:05.668Z,998.51
2018-09-28T06:30:05.773Z,998.55
2018-09-28T06:31:05.859Z,998.51
2018-09-28T06:32:05.951Z,998.53
2018-09-28T06:33:06.037Z,998.58
2018-09-28T06:34:06.129Z,998.60
2018-09-28T06:35:06.218Z,998.58
2018-09-28T06:36:06.337Z,998.60
2018-09-28T06:37:06.396Z,998.59
2018-09-28T06:38:06.495Z,998.63
2018-09-28T06:39:06.571Z,998.62
2018-09-28T06:40:06.664Z,998.59
2018-09-28T06:41:06.763Z,998.62
2018-09-28T06:42:06.915Z,998.60
2018-09-28T06:43:06.937Z,998.62
2018-09-28T06:44:07.023Z,998.64
2018-09-28T06:45:07.123Z,998.68
2018-09-28T06:46:07.209Z,998.70
2018-09-28T06:47:07.301Z,998.65
2018-09-28T06:48:07.466Z,998.69
2018-09-28T06:49:07.488Z,998.73
2018-09-28T06:50:07.576Z,998.70
2018-09-28T06:51:07.709Z,998.70
2018-09-28T06:52:07.758Z,998.71
2018-09-28T06:53:07.849Z,998.74
2018-09-28T06:54:07.995Z,998.81
2018-09-28T06:55:08.031Z,998.78
2018-09-28T06:56:08.118Z,998.79
2018-09-28T06:57:08.213Z,998.76
2018-09-28T06:58:08.367Z,998.78
2018-09-28T06:59:08.395Z,998.78
2018-09-28T07:00:08.496Z,998.80
2018-09-28T07:01:08.581Z,998.79
2018-09-28T07:02:08.670Z,998.82
2018-09-28T07:03:08.760Z,998.84
2018-09-28T07:04:08.887Z,998.89
2018-09-28T07:05:08.944Z,998.94
2018-09-28T07:06:09.045Z,998.94
2018-09-28T07:07:09.128Z,998.92
2018-09-28T07:08:09.216Z,998.98
2018-09-28T07:09:09.307Z,998.94
2018-09-28T07:10:09.403Z,998.98
2018-09-28T07:11:09.493Z,998.99
2018-09-28T07:12:09.598Z,999.05
2018-09-28T07:13:09.673Z,999.05
2018-09-28T07:14:09.764Z,999.04
2018-09-28T07:15:09.853Z,999.06
2018-09-28T07:16:09.971Z,999.07
2018-09-28T07:17:10.034Z,999.05
2018-09-28T07:18:10.171Z,999.06
2018-09-28T07:19:10.217Z,999.04
2018-09-28T07:20:10.343Z,999.05
2018-09-28T07:21:10.403Z,999.07
2018-09-28T07:22:10.497Z,999.09
2018-09-28T07:23:10.587Z,999.10
2018-09-28T07:24:10.766Z,999.09
2018-09-28T07:25:10.839Z,999.10
2018-09-28T07:26:10.860Z,999.11
2018-09-28T07:27:10.955Z,999.08
2018-09-28T07:28:11.046Z,999.10
2018-09-28T07:29:11.140Z,999.12
2018-09-28T07:30:11.249Z,999.13
2018-09-28T07:31:11.319Z,999.17
2018-09-28T07:32:11.412Z,999.16
2018-09-28T07:33:11.511Z,999.17
2018-09-28T07:34:11.604Z,999.14
2018-09-28T07:35:11.696Z,999.18
2018-09-28T07:36:11.847Z,999.15
2018-09-28T07:37:12.097Z,999.20
2018-09-28T07:38:11.973Z,999.24
2018-09-28T07:39:12.069Z,999.21
2018-09-28T07:40:12.166Z,999.25
2018-09-28T07:41:12.261Z,999.32
2018-09-28T07:42:12.368Z,999.31
2018-09-28T07:43:12.443Z,999.33
2018-09-28T07:44:12.535Z,999.38
2018-09-28T07:45:12.630Z,999.34
2018-09-28T07:46:12.729Z,999.35
2018-09-28T07:47:12.817Z,999.34
2018-09-28T07:48:12.934Z,999.35
2018-09-28T07:49:13.052Z,999.37
2018-09-28T07:50:13.103Z,999.38
2018-09-28T07:51:13.225Z,999.37
2018-09-28T07:52:13.317Z,999.40
2018-09-28T07:53:13.410Z,999.49
2018-09-28T07:54:13.520Z,999.50
2018-09-28T07:55:13.611Z,999.50
2018-09-28T07:56:13.703Z,999.53
2018-09-28T07:57:13.801Z,999.48
2018-09-28T07:58:13.893Z,999.45
2018-09-28T07:59:13.979Z,999.43
2018-09-28T08:00:14.075Z,999.48
2018-09-28T08:01:14.169Z,999.41
2018-09-28T08:02:14.265Z,999.40
2018-09-28T08:03:14.360Z,999.48
2018-09-28T08:04:14.454Z,999.47
2018-09-28T08:05:14.551Z,999.46
2018-09-28T08:06:14.645Z,999.45
2018-09-28T08:07:14.736Z,999.51
2018-09-28T08:08:14.833Z,999.50
2018-09-28T08:09:14.924Z,999.48
2018-09-28T08:10:15.018Z,999.45
2018-09-28T08:11:15.109Z,999.52
2018-09-28T08:12:15.199Z,999.47
2018-09-28T08:13:15.299Z,999.49
2018-09-28T08:14:15.387Z,999.48
2018-09-28T08:15:15.479Z,999.48
2018-09-28T08:16:15.577Z,999.53
2018-09-28T08:17:15.670Z,999.54
2018-09-28T08:18:15.765Z,999.55
2018-09-28T08:19:15.858Z,999.45
2018-09-28T08:20:15.949Z,999.57
2018-09-28T08:21:16.039Z,999.57
2018-09-28T08:22:16.132Z,999.59
2018-09-28T08:23:16.292Z,999.59
2018-09-28T08:24:16.319Z,999.63
2018-09-28T08:25:16.419Z,999.57
2018-09-28T08:26:16.572Z,999.63
2018-09-28T08:27:16.667Z,999.62
2018-09-28T08:28:16.761Z,999.62
2018-09-28T08:29:16.851Z,999.65
2018-09-28T08:30:17.041Z,999.65
2018-09-28T08:31:17.041Z,999.62
2018-09-28T08:32:17.136Z,999.60
2018-09-28T08:33:17.257Z,999.61
2018-09-28T08:34:17.351Z,999.63
2018-09-28T08:35:17.445Z,999.65
2018-09-28T08:36:17.606Z,999.66
2018-09-28T08:37:17.635Z,999.66
2018-09-28T08:38:17.729Z,999.66
2018-09-28T08:39:17.825Z,999.68
2018-09-28T08:40:17.922Z,999.69
2018-09-28T08:41:18.009Z,999.68
2018-09-28T08:42:18.102Z,999.68
2018-09-28T08:43:18.198Z,999.68
2018-09-28T08:44:18.294Z,999.67
2018-09-28T08:45:18.385Z,999.71
2018-09-28T08:46:18.477Z,999.73
2018-09-28T08:47:18.627Z,999.74
2018-09-28T08:48:18.676Z,999.76
2018-09-28T08:49:18.863Z,999.77
2018-09-28T08:50:18.866Z,999.78
2018-09-28T08:51:18.960Z,999.79
2018-09-28T08:52:19.054Z,999.80
2018-09-28T08:53:19.135Z,999.82
2018-09-28T08:54:19.243Z,999.83
2018-09-28T08:55:19.333Z,999.85
2018-09-28T08:56:19.424Z,999.86
2018-09-28T08:57:19.522Z,999.86
2018-09-28T08:58:19.615Z,999.85
2018-09-28T08:59:19.709Z,999.87
2018-09-28T09:00:19.810Z,999.89
2018-09-28T09:01:19.900Z,999.86
2018-09-28T09:02:19.996Z,999.84
2018-09-28T09:03:20.089Z,999.80
2018-09-28T09:04:20.185Z,999.77
2018-09-28T09:05:20.261Z,999.76
2018-09-28T09:06:20.354Z,999.78
2018-09-28T09:07:20.446Z,999.88
2018-09-28T09:08:20.542Z,999.91
2018-09-28T09:09:20.636Z,999.91
2018-09-28T09:10:20.758Z,999.91
2018-09-28T09:11:20.826Z,999.93
2018-09-28T09:12:28.077Z,999.97
2018-09-28T09:13:21.048Z,1000.00
2018-09-28T09:14:21.153Z,1000.00
2018-09-28T09:15:21.237Z,999.94
2018-09-28T09:16:21.331Z,999.95
2018-09-28T09:17:21.428Z,1000.00
2018-09-28T09:18:21.591Z,1000.03
2018-09-28T09:19:21.677Z,1000.01
2018-09-28T09:20:21.719Z,1000.01
2018-09-28T09:21:28.956Z,1000.07
2018-09-28T09:22:21.922Z,1000.04
2018-09-28T09:23:22.021Z,1000.07
2018-09-28T09:24:22.114Z,1000.10
2018-09-28T09:25:22.211Z,1000.07
2018-09-28T09:26:22.306Z,1000.10
2018-09-28T09:27:22.397Z,1000.04
2018-09-28T09:28:22.492Z,1000.05
2018-09-28T09:29:22.589Z,1000.03
2018-09-28T09:30:22.682Z,1000.08
2018-09-28T09:31:22.788Z,1000.09
2018-09-28T09:32:22.862Z,1000.06
2018-09-28T09:33:22.962Z,1000.08
2018-09-28T09:34:23.057Z,1000.04
2018-09-28T09:35:23.152Z,1000.05
2018-09-28T09:36:23.301Z,1000.09
2018-09-28T09:37:23.351Z,1000.13
2018-09-28T09:38:23.447Z,1000.11
2018-09-28T09:39:23.539Z,1000.13
2018-09-28T09:40:23.633Z,1000.14
2018-09-28T09:41:23.728Z,1000.18
2018-09-28T09:42:23.826Z,1000.14
2018-09-28T09:43:23.919Z,1000.14
2018-09-28T09:44:24.017Z,1000.14
2018-09-28T09:45:24.111Z,1000.17
2018-09-28T09:46:24.203Z,1000.19
2018-09-28T09:47:24.297Z,1000.17
2018-09-28T09:48:24.425Z,1000.12
2018-09-28T09:49:24.488Z,1000.11
2018-09-28T09:50:24.583Z,1000.12
2018-09-28T09:51:24.679Z,1000.13
2018-09-28T09:52:24.796Z,1000.12
2018-09-28T09:53:24.912Z,1000.14
2018-09-28T09:54:25.005Z,1000.17
2018-09-28T09:55:25.096Z,1000.17
2018-09-28T09:56:25.194Z,1000.18
2018-09-28T09:57:25.288Z,1000.17
2018-09-28T09:58:25.383Z,1000.20
2018-09-28T09:59:25.479Z,1000.21
2018-09-28T10:00:25.564Z,1000.21
2018-09-28T10:01:25.669Z,1000.21
2018-09-28T10:02:25.749Z,1000.25
2018-09-28T10:03:25.846Z,1000.27
2018-09-28T10:04:25.930Z,1000.27
2018-09-28T10:05:26.031Z,1000.28
2018-09-28T10:06:26.124Z,1000.28
2018-09-28T10:07:26.220Z,1000.27
2018-09-28T10:08:26.316Z,1000.29
2018-09-28T10:09:26.413Z,1000.28
2018-09-28T10:10:26.507Z,1000.28
2018-09-28T10:11:26.602Z,1000.28
2018-09-28T10:12:26.807Z,1000.30
2018-09-28T10:13:26.795Z,1000.29
2018-09-28T10:14:26.888Z,1000.28
2018-09-28T10:15:26.984Z,1000.27
2018-09-28T10:16:27.078Z,1000.29
2018-09-28T10:17:27.194Z,1000.29
2018-09-28T10:18:27.265Z,1000.27
2018-09-28T10:19:27.366Z,1000.32
2018-09-28T10:20:27.444Z,1000.31
2018-09-28T10:21:27.535Z,1000.24
2018-09-28T10:22:27.634Z,1000.27
2018-09-28T10:23:27.730Z,1000.30
2018-09-28T10:24:27.826Z,1000.28
2018-09-28T10:25:27.906Z,1000.36
2018-09-28T10:26:28.020Z,1000.32
2018-09-28T10:27:28.179Z,1000.38
2018-09-28T10:28:28.218Z,1000.35
2018-09-28T10:29:28.303Z,1000.35
2018-09-28T10:30:28.401Z,1000.39
2018-09-28T10:31:28.496Z,1000.43
2018-09-28T10:32:28.592Z,1000.42
2018-09-28T10:33:28.717Z,1000.40
2018-09-28T10:34:28.824Z,1000.42
2018-09-28T10:35:28.875Z,1000.40
2018-09-28T10:36:28.971Z,1000.43
2018-09-28T10:37:29.064Z,1000.43
2018-09-28T10:38:29.153Z,1000.45
2018-09-28T10:39:29.249Z,1000.50
2018-09-28T10:40:29.446Z,1000.50
2018-09-28T10:41:29.436Z,1000.52
2018-09-28T10:42:29.526Z,1000.49
2018-09-28T10:43:29.621Z,1000.51
2018-09-28T10:44:29.716Z,1000.47
2018-09-28T10:45:29.886Z,1000.48
2018-09-28T10:46:29.919Z,1000.53
2018-09-28T10:47:29.995Z,1000.52
2018-09-28T10:48:30.093Z,1000.53
2018-09-28T10:49:30.186Z,1000.48
2018-09-28T10:50:30.281Z,1000.49
2018-09-28T10:51:30.495Z,1000.48
2018-09-28T10:52:30.612Z,1000.48
2018-09-28T10:53:30.568Z,1000.50
2018-09-28T10:54:30.659Z,1000.50
2018-09-28T10:55:30.754Z,1000.53
2018-09-28T10:56:30.847Z,1000.51
2018-09-28T10:57:30.985Z,1000.48
2018-09-28T10:58:31.152Z,1000.51
2018-09-28T10:59:31.132Z,1000.54
2018-09-28T11:00:31.302Z,1000.51
2018-09-28T11:01:31.323Z,1000.54
2018-09-28T11:02:31.419Z,1000.54
2018-09-28T11:03:31.537Z,1000.52
2018-09-28T11:04:31.658Z,1000.57
2018-09-28T11:05:31.700Z,1000.57
2018-09-28T11:06:31.796Z,1000.57
2018-09-28T11:07:31.889Z,1000.53
2018-09-28T11:08:32.059Z,1000.59
2018-09-28T11:09:32.080Z,1000.53
2018-09-28T11:10:32.191Z,1000.54
2018-09-28T11:11:32.269Z,1000.54
2018-09-28T11:12:32.362Z,1000.56
2018-09-28T11:13:32.456Z,1000.56
2018-09-28T11:14:32.549Z,1000.57
2018-09-28T11:15:32.659Z,1000.59
2018-09-28T11:16:32.741Z,1000.59
2018-09-28T11:17:32.831Z,1000.53
2018-09-28T11:18:32.926Z,1000.55
2018-09-28T11:19:33.019Z,1000.53
2018-09-28T11:20:33.178Z,1000.59
2018-09-28T11:21:33.255Z,1000.59
2018-09-28T11:22:33.314Z,1000.68
2018-09-28T11:23:33.409Z,1000.66
2018-09-28T11:24:33.499Z,1000.67
2018-09-28T11:25:33.592Z,1000.67
2018-09-28T11:26:33.687Z,1000.66
2018-09-28T11:27:33.809Z,1000.67
2018-09-28T11:28:33.899Z,1000.59
2018-09-28T11:29:33.971Z,1000.59
2018-09-28T11:30:34.088Z,1000.64
2018-09-28T11:31:34.180Z,1000.62
2018-09-28T11:32:34.275Z,1000.58
2018-09-28T11:33:34.397Z,1000.61
2018-09-28T11:34:34.464Z,1000.56
2018-09-28T11:35:34.553Z,1000.59
2018-09-28T11:36:34.649Z,1000.54
2018-09-28T11:37:34.765Z,1000.51
2018-09-28T11:38:34.846Z,1000.55
2018-09-28T11:39:34.952Z,1000.51
2018-09-28T11:40:35.037Z,1000.51
2018-09-28T11:41:35.133Z,1000.51
2018-09-28T11:42:35.228Z,1000.51
2018-09-28T11:43:35.321Z,1000.53
2018-09-28T11:44:35.412Z,1000.46
2018-09-28T11:45:35.558Z,1000.45
2018-09-28T11:46:35.608Z,1000.45
2018-09-28T11:47:35.704Z,1000.49
2018-09-28T11:48:35.802Z,1000.46
2018-09-28T11:49:35.896Z,1000.47
2018-09-28T11:50:35.990Z,1000.50
2018-09-28T11:51:36.097Z,1000.44
2018-09-28T11:52:36.180Z,1000.48
2018-09-28T11:53:36.276Z,1000.50
2018-09-28T11:54:36.369Z,1000.46
2018-09-28T11:55:36.469Z,1000.49
2018-09-28T11:56:36.559Z,1000.49
2018-09-28T11:57:36.708Z,1000.45
2018-09-28T11:58:36.746Z,1000.45
2018-09-28T11:59:36.847Z,1000.46
2018-09-28T12:00:36.942Z,1000.49
2018-09-28T12:01:37.039Z,1000.53
2018-09-28T12:02:37.134Z,1000.47
2018-09-28T12:03:37.231Z,1000.46
2018-09-28T12:04:37.322Z,1000.43
2018-09-28T12:05:37.418Z,1000.38
2018-09-28T12:06:37.673Z,1000.41
2018-09-28T12:07:37.618Z,1000.41
2018-09-28T12:08:37.713Z,1000.38
2018-09-28T12:09:37.863Z,1000.40
2018-09-28T12:10:37.900Z,1000.41
2018-09-28T12:11:37.985Z,1000.36
2018-09-28T12:12:38.094Z,1000.35
2018-09-28T12:13:38.173Z,1000.34
2018-09-28T12:14:38.278Z,1000.36
2018-09-28T12:15:38.387Z,1000.31
2018-09-28T12:16:38.476Z,1000.31
2018-09-28T12:17:38.574Z,1000.33
2018-09-28T12:18:38.689Z,1000.29
2018-09-28T12:19:38.765Z,1000.28
2018-09-28T12:20:38.849Z,1000.27
2018-09-28T12:21:38.989Z,1000.30
2018-09-28T12:22:39.050Z,1000.28
2018-09-28T12:23:39.147Z,1000.31
2018-09-28T12:24:39.296Z,1000.32
2018-09-28T12:25:39.338Z,1000.30
2018-09-28T12:26:39.424Z,1000.37